首页
METAR-TAF:

METAR-TAF

机场 :

乔莫·肯雅塔国际机场

奈洛比, 肯尼亚

纬度: 01-19S, 经度: 036-55E, 海拔: 1624米

当前天气观测

该预报发布于43分钟前的01:00 UTC
风速4节,风向东转东北
温度 18°C
湿度 94%
气压 1021 hPa
能见度10公里或以上

METAR: HKJK 080100Z 07004KT 9999 BNK016 18/17 Q1021 NOSIG

时间: 04:43 (01:43 UTC)

预报

该预报发布于8小时和43分钟前的17:00 UTC
预报有效从07日的 18点(UTC)到 08日的 24点(UTC)
风速5节,风向北转东北
能见度10公里或以上
多云层高于2000英尺
成为
从 08日的 01点(UTC)到 08日的 06点(UTC)
少量云层高于800英尺
多云层高于1800英尺
成为
从 08日的 08点(UTC)到 08日的 11点(UTC)
风速10节,风向南转南东
多云层高于2500英尺
几率 30% :
短暂存在
从 08日的 13点(UTC)到 08日的 17点(UTC)
少量云层高于2400英尺, 积雨云.
多云层高于2500英尺
多云层高于8000英尺
小阵雨
成为
从 08日的 20点(UTC)到 08日的 23点(UTC)
风速5节,风向北转东北
散云层高于2000英尺

TAF: HKJK 071700Z 0718/0824 03005KT 9999 BKN020 BECMG 0801/0806 FEW008 BKN018 BECMG 0808/0811 16010KT BKN025 PROB30 TEMPO 0813/0817 -SHRA FEW024CB BKN025 BKN080 BECMG 0820/0823 03005KT NSW SCT020

超过4000个机场的气象观测和天气预报(METAR&TAF报告)。

可查询的气象台以黄色和红色小点在地图上表示。

将鼠标移到小点上方,可查看气象台名称。

然后点击查看天气观测和预报。

如需切换地图:点击带黑十字的绿色按钮放大地图;点击带横线的绿色按钮缩小地图;或者点击绿色箭头查看邻近地区的地图。


METAR-TAF: